Time;durP1;ratioP1;P1;durP2;ratioP2;P2;SDS_P1;SDS_P2;PMS_P1;PMS_P2;Temp;Humidity;BMP_temperature;BMP_pressure;BME280_temperature;BME280_humidity;BME280_pressure;Samples;Min_cycle;Max_cycle;Signal;HPM_P1;HPM_P2
2023/07/10 00:00:24;;;;;;;;;14.00;13.00;27.40;51.90;;;;;;111797;1238;44565;-68
2023/07/10 00:03:11;;;;;;;;;12.00;10.50;27.40;51.80;;;;;;111981;1237;51341;-69
2023/07/10 00:05:37;;;;;;;;;11.75;11.25;27.40;51.80;;;;;;111859;1238;49779;-69
2023/07/10 00:08:04;;;;;;;;;11.75;10.25;27.40;51.80;;;;;;111791;1241;54459;-70
2023/07/10 00:10:31;;;;;;;;;12.75;11.75;27.40;51.80;;;;;;111801;1238;45812;-70
2023/07/10 00:12:58;;;;;;;;;10.75;10.00;27.40;51.80;;;;;;111706;1242;48983;-69
2023/07/10 00:15:26;;;;;;;;;13.00;12.00;27.30;51.80;;;;;;111715;1243;49929;-70
2023/07/10 00:17:53;;;;;;;;;10.00;10.00;27.30;51.80;;;;;;111749;1238;53257;-69
2023/07/10 00:20:23;;;;;;;;;10.50;9.25;27.40;51.90;;;;;;111639;1241;44237;-70
2023/07/10 00:22:50;;;;;;;;;12.50;11.75;27.40;51.90;;;;;;111808;1238;49869;-68
2023/07/10 00:25:18;;;;;;;;;11.00;11.00;27.30;51.90;;;;;;112070;1238;49424;-68
2023/07/10 00:27:47;;;;;;;;;11.25;10.75;27.30;52.10;;;;;;111646;1241;54661;-68
2023/07/10 00:30:21;;;;;;;;;11.50;11.00;27.30;51.90;;;;;;111859;1238;44384;-70
2023/07/10 00:32:52;;;;;;;;;11.00;10.00;27.30;51.80;;;;;;111772;1238;49133;-69
2023/07/10 00:35:24;;;;;;;;;10.00;9.25;27.30;52.10;;;;;;112117;1238;49476;-68
2023/07/10 00:38:02;;;;;;;;;12.00;9.25;27.30;52.10;;;;;;111361;1238;53681;-67
2023/07/10 00:40:32;;;;;;;;;12.00;11.75;27.30;51.90;;;;;;111696;1237;45137;-68
2023/07/10 00:43:02;;;;;;;;;12.00;11.00;27.30;51.90;;;;;;111839;1241;49488;-68
2023/07/10 00:45:29;;;;;;;;;13.00;12.00;27.30;51.90;;;;;;111922;1241;49310;-68
2023/07/10 00:48:45;;;;;;;;;12.00;11.25;27.30;51.90;;;;;;111609;1241;54822;-68
2023/07/10 00:51:23;;;;;;;;;10.25;10.00;27.30;51.90;;;;;;111499;1238;44810;-67
2023/07/10 00:53:51;;;;;;;;;11.00;10.00;27.30;51.90;;;;;;111725;1242;49558;-68
2023/07/10 00:56:19;;;;;;;;;11.67;11.67;27.30;51.90;;;;;;111789;1239;49182;-69
2023/07/10 00:58:49;;;;;;;;;11.00;10.00;27.30;51.90;;;;;;111417;1243;53695;-69
2023/07/10 01:01:22;;;;;;;;;12.67;11.67;27.30;51.90;;;;;;111806;1241;44609;-68
2023/07/10 01:03:51;;;;;;;;;10.00;9.00;27.20;52.10;;;;;;111701;1241;49740;-68
2023/07/10 01:06:22;;;;;;;;;9.00;9.00;27.20;52.00;;;;;;111663;1238;49510;-70
2023/07/10 01:09:03;;;;;;;;;10.00;9.50;27.20;52.20;;;;;;111795;1238;53344;-70
2023/07/10 01:11:32;;;;;;;;;12.50;10.50;27.20;52.00;;;;;;111782;1239;44309;-69
2023/07/10 01:14:00;;;;;;;;;9.00;8.50;27.20;51.90;;;;;;111984;1238;49368;-69
2023/07/10 01:16:28;;;;;;;;;10.25;9.75;27.20;52.20;;;;;;111799;1241;50281;-69
2023/07/10 01:18:55;;;;;;;;;11.00;10.00;27.20;51.90;;;;;;111758;1241;53459;-70
2023/07/10 01:21:33;;;;;;;;;11.00;10.00;27.20;51.50;;;;;;111812;1238;44603;-69
2023/07/10 01:24:02;;;;;;;;;11.75;10.75;27.20;52.20;;;;;;111844;1238;49491;-69
2023/07/10 01:26:30;;;;;;;;;11.75;11.00;27.20;52.30;;;;;;111815;1238;49488;-69
2023/07/10 01:28:58;;;;;;;;;10.00;9.75;27.20;52.00;;;;;;111559;1242;53246;-70
2023/07/10 01:31:27;;;;;;;;;10.00;9.00;27.10;52.00;;;;;;111391;1243;45119;-70
2023/07/10 01:33:57;;;;;;;;;11.00;10.25;27.10;52.00;;;;;;111767;1238;49865;-69
2023/07/10 01:36:27;;;;;;;;;10.67;10.00;27.10;52.10;;;;;;111545;1241;49752;-70
2023/07/10 01:38:59;;;;;;;;;10.25;10.00;27.10;52.10;;;;;;111780;1238;54343;-70
2023/07/10 01:41:31;;;;;;;;;12.50;11.00;27.10;52.10;;;;;;111360;1238;44649;-69
2023/07/10 01:43:58;;;;;;;;;11.25;11.25;27.10;52.10;;;;;;112058;1238;49300;-70
2023/07/10 01:46:27;;;;;;;;;11.00;10.00;27.10;52.10;;;;;;111813;1238;50225;-69
2023/07/10 01:48:58;;;;;;;;;9.33;9.00;27.10;52.10;;;;;;111798;1241;53949;-69
2023/07/10 01:51:25;;;;;;;;;13.00;12.00;27.10;52.20;;;;;;111852;1240;44297;-70
2023/07/10 01:53:52;;;;;;;;;12.75;10.75;27.10;52.10;;;;;;112060;1237;50006;-68
2023/07/10 01:56:21;;;;;;;;;11.00;10.00;27.10;52.10;;;;;;111660;1238;49009;-69
2023/07/10 01:58:48;;;;;;;;;11.33;10.33;27.10;52.10;;;;;;111724;1241;53616;-70
2023/07/10 02:01:15;;;;;;;;;10.00;9.50;27.10;52.10;;;;;;111781;1241;45039;-69
2023/07/10 02:03:41;;;;;;;;;10.00;9.00;27.10;52.20;;;;;;111798;1238;49590;-68
2023/07/10 02:06:09;;;;;;;;;11.25;10.00;27.00;52.10;;;;;;111793;1237;48754;-67
2023/07/10 02:08:35;;;;;;;;;10.00;9.33;27.00;52.10;;;;;;111619;1242;53869;-68
2023/07/10 02:11:02;;;;;;;;;11.00;9.00;27.00;52.10;;;;;;111788;1244;44574;-70
2023/07/10 02:13:29;;;;;;;;;10.33;9.67;27.00;52.20;;;;;;112076;1238;49437;-69
2023/07/10 02:16:01;;;;;;;;;10.00;9.75;27.00;52.20;;;;;;111793;1239;49730;-70
2023/07/10 02:18:28;;;;;;;;;9.00;9.00;27.00;52.20;;;;;;111781;1238;54195;-69
2023/07/10 02:20:55;;;;;;;;;11.00;10.00;27.00;52.30;;;;;;111636;1238;44496;-68
2023/07/10 02:23:22;;;;;;;;;10.00;9.00;27.00;52.20;;;;;;112125;1238;49886;-69
2023/07/10 02:25:49;;;;;;;;;9.75;9.25;27.00;52.30;;;;;;111788;1238;50609;-69
2023/07/10 02:28:16;;;;;;;;;9.75;9.00;27.00;52.30;;;;;;111775;1241;54064;-69
2023/07/10 02:30:43;;;;;;;;;10.50;10.25;27.00;52.30;;;;;;111811;1238;44388;-67
2023/07/10 02:33:10;;;;;;;;;10.50;9.75;26.90;52.20;;;;;;111983;1241;49357;-68
2023/07/10 02:35:37;;;;;;;;;11.00;10.00;26.90;52.30;;;;;;111722;1241;50560;-68
2023/07/10 02:38:04;;;;;;;;;11.25;10.25;26.90;52.30;;;;;;111765;1241;54058;-69
2023/07/10 02:40:31;;;;;;;;;10.75;10.00;26.90;52.30;;;;;;111788;1238;44082;-69
2023/07/10 02:42:57;;;;;;;;;10.00;9.67;26.90;52.30;;;;;;111490;1238;49152;-69
2023/07/10 02:45:25;;;;;;;;;10.75;10.50;26.90;52.30;;;;;;112020;1241;50164;-68
2023/07/10 02:47:52;;;;;;;;;11.00;10.00;26.90;52.30;;;;;;111832;1241;54087;-70
2023/07/10 02:50:19;;;;;;;;;12.00;11.00;26.90;52.30;;;;;;111802;1241;44621;-69
2023/07/10 02:52:46;;;;;;;;;11.75;10.25;26.90;51.90;;;;;;111789;1241;50342;-69
2023/07/10 02:55:13;;;;;;;;;10.25;9.75;26.90;52.30;;;;;;112054;1241;49682;-69
2023/07/10 02:57:40;;;;;;;;;12.00;10.00;26.90;52.50;;;;;;111670;1241;54470;-69
2023/07/10 03:00:08;;;;;;;;;10.75;9.75;26.90;52.30;;;;;;111561;1241;44348;-69
2023/07/10 03:02:35;;;;;;;;;10.67;10.00;26.90;52.40;;;;;;111482;1238;48860;-69
2023/07/10 03:05:02;;;;;;;;;8.75;8.50;26.90;52.40;;;;;;112076;1238;49747;-68
2023/07/10 03:07:30;;;;;;;;;11.00;9.50;26.90;52.40;;;;;;111633;1243;53982;-70
2023/07/10 03:09:57;;;;;;;;;10.00;9.00;26.90;52.30;;;;;;111857;1241;44436;-69
2023/07/10 03:12:24;;;;;;;;;12.00;10.00;26.90;52.30;;;;;;111753;1240;49327;-68
2023/07/10 03:14:51;;;;;;;;;11.00;10.00;26.90;52.30;;;;;;111891;1244;50079;-72
2023/07/10 03:17:18;;;;;;;;;10.00;9.25;26.90;52.30;;;;;;111806;1237;54171;-68
2023/07/10 03:19:47;;;;;;;;;10.75;10.00;26.90;52.20;;;;;;111769;1238;45703;-68
2023/07/10 03:22:14;;;;;;;;;12.25;11.25;26.90;52.70;;;;;;111415;1242;49200;-68
2023/07/10 03:24:41;;;;;;;;;11.50;10.75;26.90;52.20;;;;;;111811;1242;49711;-68
2023/07/10 03:27:08;;;;;;;;;11.00;10.00;26.90;52.30;;;;;;111825;1238;53481;-69
2023/07/10 03:29:36;;;;;;;;;12.00;11.00;26.90;52.60;;;;;;111804;1238;44908;-68
2023/07/10 03:32:07;;;;;;;;;10.25;10.25;26.90;52.20;;;;;;111581;1238;49090;-67
2023/07/10 03:34:33;;;;;;;;;10.00;9.00;26.90;52.20;;;;;;111548;1243;49136;-66
2023/07/10 03:37:02;;;;;;;;;9.25;9.00;26.90;51.80;;;;;;111701;1238;54688;-68
2023/07/10 03:39:29;;;;;;;;;10.75;10.25;26.90;52.20;;;;;;111776;1237;45632;-69
2023/07/10 03:41:56;;;;;;;;;11.25;10.25;26.90;52.20;;;;;;111808;1241;49657;-69
2023/07/10 03:44:23;;;;;;;;;11.00;9.00;26.90;52.20;;;;;;112008;1238;49971;-69
2023/07/10 03:46:50;;;;;;;;;12.25;10.75;26.90;52.20;;;;;;111768;1237;53432;-69
2023/07/10 03:49:17;;;;;;;;;11.00;10.00;26.90;52.10;;;;;;111599;1238;44913;-69
2023/07/10 03:51:44;;;;;;;;;10.33;9.33;26.90;52.40;;;;;;111720;1237;50349;-70
2023/07/10 03:54:11;;;;;;;;;10.33;9.33;26.90;52.20;;;;;;112079;1238;49560;-69
2023/07/10 03:56:38;;;;;;;;;11.50;11.00;26.90;52.20;;;;;;111777;1241;53788;-69
2023/07/10 03:59:06;;;;;;;;;11.00;10.00;26.90;52.20;;;;;;111796;1241;44828;-70
2023/07/10 04:01:34;;;;;;;;;10.00;9.00;26.90;52.30;;;;;;111606;1241;49675;-66
2023/07/10 04:04:01;;;;;;;;;10.00;9.25;26.90;52.20;;;;;;111538;1238;50369;-67
2023/07/10 04:06:28;;;;;;;;;10.00;9.00;26.90;52.50;;;;;;111773;1237;53578;-67
2023/07/10 04:08:58;;;;;;;;;10.75;10.00;26.90;52.50;;;;;;111782;1238;46338;-67
2023/07/10 04:11:26;;;;;;;;;11.00;10.00;26.90;52.30;;;;;;111781;1241;48637;-67
2023/07/10 04:13:52;;;;;;;;;10.75;9.75;26.80;52.20;;;;;;111891;1238;50348;-67
2023/07/10 04:16:25;;;;;;;;;11.25;11.00;26.80;52.30;;;;;;111329;1242;54653;-69
2023/07/10 04:18:53;;;;;;;;;13.67;11.33;26.80;52.20;;;;;;111759;1241;44252;-68
2023/07/10 04:21:26;;;;;;;;;9.25;8.25;26.80;52.30;;;;;;111643;1241;49659;-67
2023/07/10 04:23:54;;;;;;;;;11.00;10.00;26.80;52.30;;;;;;112091;1241;49210;-70
2023/07/10 04:26:27;;;;;;;;;12.67;11.67;26.80;52.30;;;;;;111780;1241;53451;-69
2023/07/10 04:28:56;;;;;;;;;12.00;11.00;26.80;52.20;;;;;;111757;1238;44177;-69
2023/07/10 04:31:23;;;;;;;;;11.25;11.00;26.80;52.30;;;;;;111434;1240;50149;-64
2023/07/10 04:33:51;;;;;;;;;15.00;14.00;26.80;52.10;;;;;;111738;1241;49690;-65
2023/07/10 04:36:20;;;;;;;;;17.00;16.50;26.80;51.50;;;;;;111528;1238;54808;-65
2023/07/10 04:38:48;;;;;;;;;17.75;16.75;26.80;50.90;;;;;;111704;1238;45827;-65
2023/07/10 04:41:20;;;;;;;;;19.75;19.00;26.80;50.80;;;;;;111723;1241;49219;-67
2023/07/10 04:43:47;;;;;;;;;18.50;18.25;26.80;50.70;;;;;;111730;1238;49525;-69
2023/07/10 04:46:16;;;;;;;;;18.00;18.00;26.80;50.80;;;;;;111664;1237;54044;-66
2023/07/10 04:48:44;;;;;;;;;18.25;17.00;26.80;51.20;;;;;;111843;1241;44950;-66
2023/07/10 04:51:13;;;;;;;;;17.25;17.00;26.80;51.00;;;;;;111639;1238;49941;-66
2023/07/10 04:53:40;;;;;;;;;17.00;16.00;26.90;51.00;;;;;;112114;1237;49803;-66
2023/07/10 04:56:10;;;;;;;;;22.25;19.75;26.90;51.00;;;;;;111822;1239;53557;-66
2023/07/10 04:59:04;;;;;;;;;22.25;20.25;26.90;51.10;;;;;;111699;1238;44965;-66
2023/07/10 05:01:34;;;;;;;;;22.75;20.00;27.00;51.00;;;;;;111586;1241;48951;-67
2023/07/10 05:04:02;;;;;;;;;24.67;21.67;27.00;51.00;;;;;;112073;1241;49751;-68
2023/07/10 05:06:29;;;;;;;;;23.33;22.00;27.00;50.90;;;;;;111693;1237;53971;-65
2023/07/10 05:08:58;;;;;;;;;22.00;21.75;27.10;50.90;;;;;;111760;1241;44776;-66
2023/07/10 05:11:30;;;;;;;;;22.00;20.75;27.10;50.90;;;;;;111811;1241;49891;-66
2023/07/10 05:13:57;;;;;;;;;27.00;23.75;27.10;50.90;;;;;;112055;1238;48876;-65
2023/07/10 05:16:25;;;;;;;;;25.75;24.25;27.10;50.90;;;;;;111630;1238;54649;-66
2023/07/10 05:18:52;;;;;;;;;22.00;20.50;27.10;50.80;;;;;;111793;1241;44214;-66
2023/07/10 05:21:19;;;;;;;;;24.50;21.75;27.20;50.90;;;;;;111425;1242;48896;-66
2023/07/10 05:23:47;;;;;;;;;25.75;23.50;27.20;50.90;;;;;;112048;1238;49548;-65
2023/07/10 05:26:16;;;;;;;;;22.25;19.75;27.20;50.90;;;;;;111774;1238;53105;-65
2023/07/10 05:28:43;;;;;;;;;29.75;26.00;27.20;50.90;;;;;;111791;1238;44340;-67
2023/07/10 05:31:11;;;;;;;;;28.50;25.00;27.20;51.10;;;;;;111797;1238;49349;-66
2023/07/10 05:33:39;;;;;;;;;30.00;28.50;27.20;51.10;;;;;;111820;1238;49394;-65
2023/07/10 05:36:10;;;;;;;;;36.25;32.00;27.20;51.30;;;;;;110823;1239;789150;-66
2023/07/10 05:38:38;;;;;;;;;32.25;30.00;27.30;51.40;;;;;;111646;1238;44703;-65
2023/07/10 05:41:05;;;;;;;;;40.25;31.25;27.30;51.30;;;;;;111790;1238;50476;-69
2023/07/10 05:43:33;;;;;;;;;38.75;33.50;27.30;51.40;;;;;;111747;1243;49764;-70
2023/07/10 05:46:01;;;;;;;;;36.33;30.67;27.30;51.40;;;;;;111509;1243;53492;-70
2023/07/10 05:48:28;;;;;;;;;34.75;29.00;27.30;51.40;;;;;;111805;1241;45986;-70
2023/07/10 05:50:57;;;;;;;;;34.00;28.00;27.30;51.30;;;;;;111581;1238;49535;-69
2023/07/10 05:53:26;;;;;;;;;38.25;31.25;27.30;51.50;;;;;;112017;1238;49799;-77
2023/07/10 05:55:56;;;;;;;;;47.00;36.00;27.40;51.70;;;;;;111841;1240;53659;-77
2023/07/10 05:58:25;;;;;;;;;45.50;36.50;27.30;51.40;;;;;;111994;1241;44304;-76
2023/07/10 06:01:00;;;;;;;;;48.50;38.00;27.40;51.40;;;;;;111521;1244;49079;-71
2023/07/10 06:03:31;;;;;;;;;47.33;36.00;27.40;51.20;;;;;;111709;1244;48698;-70
2023/07/10 06:06:03;;;;;;;;;52.00;39.00;27.50;51.20;;;;;;111439;1241;53578;-73
2023/07/10 06:08:32;;;;;;;;;51.33;39.00;27.50;51.20;;;;;;111853;1240;45020;-73
2023/07/10 06:10:59;;;;;;;;;48.67;37.33;27.50;51.40;;;;;;111797;1241;49821;-72
2023/07/10 06:13:26;;;;;;;;;47.00;36.00;27.50;51.20;;;;;;112100;1241;50217;-73
2023/07/10 06:15:56;;;;;;;;;47.50;37.25;27.50;51.30;;;;;;111725;1237;54840;-71
2023/07/10 06:18:24;;;;;;;;;49.67;37.00;27.50;51.30;;;;;;111827;1238;44064;-73
2023/07/10 06:20:52;;;;;;;;;43.00;33.00;27.50;51.40;;;;;;111794;1239;50330;-72
2023/07/10 06:23:22;;;;;;;;;44.33;34.00;27.50;51.20;;;;;;111959;1238;48927;-71
2023/07/10 06:25:50;;;;;;;;;45.50;34.00;27.50;51.10;;;;;;111764;1238;54932;-69
2023/07/10 06:28:17;;;;;;;;;43.00;33.00;27.60;51.20;;;;;;111430;1238;45697;-73
2023/07/10 06:30:53;;;;;;;;;45.33;34.00;27.60;51.00;;;;;;111779;1237;49265;-74
2023/07/10 06:33:21;;;;;;;;;39.00;33.00;27.60;50.90;;;;;;111932;1238;49675;-70
2023/07/10 06:35:48;;;;;;;;;50.33;38.67;27.70;51.00;;;;;;111793;1238;53135;-74
2023/07/10 06:38:15;;;;;;;;;51.25;39.25;27.70;51.80;;;;;;111769;1238;44122;-74
2023/07/10 06:40:42;;;;;;;;;43.00;34.50;27.70;52.30;;;;;;111614;1238;50027;-73
2023/07/10 06:43:09;;;;;;;;;46.75;38.50;27.70;51.90;;;;;;111971;1237;49083;-71
2023/07/10 06:45:36;;;;;;;;;47.75;38.00;27.70;52.00;;;;;;111870;1241;54552;-71
2023/07/10 06:48:03;;;;;;;;;46.00;36.25;27.70;51.90;;;;;;111770;1238;44915;-72
2023/07/10 06:50:30;;;;;;;;;43.00;35.75;27.80;52.20;;;;;;111778;1237;49813;-72
2023/07/10 06:52:57;;;;;;;;;46.00;36.33;27.80;52.00;;;;;;111812;1241;49606;-70
2023/07/10 06:55:24;;;;;;;;;40.75;33.25;27.80;52.00;;;;;;112012;1246;53817;-74
2023/07/10 06:57:51;;;;;;;;;42.67;33.00;27.80;52.00;;;;;;111806;1238;45929;-72
2023/07/10 07:00:19;;;;;;;;;43.00;35.00;27.90;52.10;;;;;;111665;1238;49125;-71
2023/07/10 07:02:46;;;;;;;;;45.25;34.50;27.90;51.90;;;;;;111824;1238;50462;-71
2023/07/10 07:05:13;;;;;;;;;45.25;37.75;27.90;52.00;;;;;;112065;1238;53302;-72
2023/07/10 07:07:41;;;;;;;;;46.00;36.00;27.90;52.10;;;;;;111718;1238;44907;-69
2023/07/10 07:10:14;;;;;;;;;38.25;31.50;28.00;51.60;;;;;;111796;1237;49789;-71
2023/07/10 07:12:42;;;;;;;;;41.25;34.00;28.00;51.70;;;;;;111806;1239;49510;-73
2023/07/10 07:15:11;;;;;;;;;40.25;32.50;28.00;51.70;;;;;;111931;1238;53696;-74
2023/07/10 07:17:38;;;;;;;;;39.33;33.67;28.00;51.40;;;;;;111770;1238;45601;-73
2023/07/10 07:20:06;;;;;;;;;37.75;31.50;28.10;51.90;;;;;;111800;1241;50206;-71
2023/07/10 07:22:34;;;;;;;;;35.67;32.00;28.10;51.50;;;;;;111771;1238;50065;-74
2023/07/10 07:25:01;;;;;;;;;36.25;32.00;28.10;51.80;;;;;;112078;1238;53317;-71
2023/07/10 07:27:31;;;;;;;;;35.33;31.00;28.10;51.70;;;;;;111698;1241;45478;-71
2023/07/10 07:30:03;;;;;;;;;35.50;30.00;28.10;51.10;;;;;;111795;1241;49631;-69
2023/07/10 07:32:30;;;;;;;;;33.00;30.67;28.20;51.50;;;;;;111686;1241;49527;-73
2023/07/10 07:34:57;;;;;;;;;36.00;31.75;28.20;51.80;;;;;;112190;1241;54752;-71
2023/07/10 07:37:24;;;;;;;;;37.00;32.00;28.20;51.50;;;;;;112002;1241;44800;-72
2023/07/10 07:39:51;;;;;;;;;37.25;31.50;28.30;51.20;;;;;;111976;1241;49263;-71
2023/07/10 07:42:19;;;;;;;;;39.25;31.50;28.30;51.50;;;;;;111537;1241;48807;-71
2023/07/10 07:44:46;;;;;;;;;36.00;30.00;28.40;51.20;;;;;;112115;1238;53165;-70
2023/07/10 07:47:13;;;;;;;;;41.33;31.33;28.40;51.30;;;;;;111778;1238;44853;-71
2023/07/10 07:49:40;;;;;;;;;32.25;29.00;28.40;51.60;;;;;;112144;1239;49372;-72
2023/07/10 07:52:07;;;;;;;;;37.00;31.25;28.50;51.40;;;;;;112164;1237;50198;-73
2023/07/10 07:54:34;;;;;;;;;31.25;27.50;28.50;51.10;;;;;;112173;1238;53527;-71
2023/07/10 07:57:01;;;;;;;;;31.33;27.00;28.50;50.90;;;;;;112007;1241;45075;-72
2023/07/10 07:59:29;;;;;;;;;28.67;26.00;28.60;50.60;;;;;;111868;1241;49030;-71
2023/07/10 08:01:56;;;;;;;;;32.50;29.00;28.60;50.70;;;;;;111420;1241;49047;-71
2023/07/10 08:04:23;;;;;;;;;35.33;28.33;28.70;50.80;;;;;;112085;1236;53663;-72
2023/07/10 08:06:50;;;;;;;;;29.25;25.50;28.70;50.60;;;;;;111817;1237;44676;-71
2023/07/10 08:09:17;;;;;;;;;27.67;24.33;28.80;50.70;;;;;;111855;1238;50889;-69
2023/07/10 08:11:44;;;;;;;;;29.25;26.50;28.80;50.50;;;;;;111787;1238;50617;-68
2023/07/10 08:14:11;;;;;;;;;28.00;26.00;28.80;50.60;;;;;;112100;1238;53932;-70
2023/07/10 08:16:38;;;;;;;;;26.50;25.00;28.80;51.00;;;;;;111813;1238;44899;-69
2023/07/10 08:19:05;;;;;;;;;32.67;29.00;28.80;51.00;;;;;;111647;1241;49182;-72
2023/07/10 08:21:32;;;;;;;;;28.00;26.00;28.80;51.10;;;;;;111798;1239;49263;-74
2023/07/10 08:23:58;;;;;;;;;28.00;26.00;28.70;51.10;;;;;;111980;1241;54758;-73
2023/07/10 08:26:25;;;;;;;;;27.00;26.00;28.70;51.00;;;;;;111823;1238;44568;-75
2023/07/10 08:28:53;;;;;;;;;28.75;25.50;28.60;51.20;;;;;;111802;1241;49284;-73
2023/07/10 08:31:21;;;;;;;;;29.00;26.00;28.60;51.70;;;;;;111636;1237;48911;-73
2023/07/10 08:33:48;;;;;;;;;27.67;24.33;28.50;51.40;;;;;;111941;1242;53720;-74
2023/07/10 08:36:15;;;;;;;;;27.25;25.75;28.50;51.20;;;;;;111405;1244;44627;-73
2023/07/10 08:38:43;;;;;;;;;31.00;25.67;28.50;51.20;;;;;;111690;1238;50340;-72
2023/07/10 08:41:17;;;;;;;;;27.75;24.00;28.60;51.30;;;;;;111649;1238;49560;-71
2023/07/10 08:43:44;;;;;;;;;23.25;21.00;28.60;51.40;;;;;;112175;1241;54654;-71
2023/07/10 08:46:15;;;;;;;;;26.50;23.25;28.60;51.30;;;;;;111499;1243;45719;-72
2023/07/10 08:49:07;;;;;;;;;26.25;21.50;28.60;51.20;;;;;;111827;1238;48757;-71
2023/07/10 08:51:46;;;;;;;;;24.00;22.50;28.60;51.20;;;;;;111502;1238;49494;-73
2023/07/10 08:54:18;;;;;;;;;26.00;24.00;28.70;51.20;;;;;;111934;1238;53120;-69
2023/07/10 08:56:55;;;;;;;;;27.25;22.50;28.70;51.20;;;;;;111837;1239;45047;-70
2023/07/10 08:59:47;;;;;;;;;25.00;22.33;28.70;51.70;;;;;;111648;1238;49182;-70
2023/07/10 09:02:36;;;;;;;;;23.00;21.25;28.70;51.10;;;;;;110905;1241;54967;-71
2023/07/10 09:05:20;;;;;;;;;23.50;21.00;28.70;51.00;;;;;;111393;1247;53253;-73
2023/07/10 09:07:48;;;;;;;;;25.50;23.00;28.80;51.20;;;;;;111366;1244;45619;-76
2023/07/10 09:10:20;;;;;;;;;25.33;23.00;28.80;51.50;;;;;;111600;1241;49743;-74
2023/07/10 09:12:50;;;;;;;;;24.00;21.75;28.90;50.70;;;;;;111488;1246;48765;-72
2023/07/10 09:15:26;;;;;;;;;22.00;21.00;29.00;50.60;;;;;;111650;1246;53948;-70
2023/07/10 09:18:24;;;;;;;;;21.00;19.00;29.00;50.40;;;;;;111727;1244;44321;-72
2023/07/10 09:20:57;;;;;;;;;22.67;21.00;29.00;50.50;;;;;;111676;1244;49274;-72
2023/07/10 09:23:33;;;;;;;;;21.00;19.00;29.00;50.40;;;;;;111603;1244;50170;-71
2023/07/10 09:26:13;;;;;;;;;24.00;22.00;29.10;50.50;;;;;;111803;1244;53465;-72
2023/07/10 09:28:42;;;;;;;;;22.67;20.00;29.10;50.20;;;;;;111715;1243;44400;-71
2023/07/10 09:31:09;;;;;;;;;21.50;20.00;29.20;50.30;;;;;;111689;1244;48912;-72
2023/07/10 09:34:00;;;;;;;;;23.00;21.00;29.20;50.10;;;;;;111783;1244;49056;-72
2023/07/10 09:36:27;;;;;;;;;20.25;19.25;29.30;50.20;;;;;;111529;1243;54484;-72
2023/07/10 09:38:56;;;;;;;;;21.00;20.00;29.20;50.00;;;;;;111626;1243;44172;-73
2023/07/10 09:41:28;;;;;;;;;22.00;20.00;29.30;50.00;;;;;;111593;1248;49251;-73
2023/07/10 09:44:01;;;;;;;;;20.75;20.25;29.30;50.00;;;;;;111736;1244;49466;-71
2023/07/10 09:46:31;;;;;;;;;21.50;20.25;29.30;50.00;;;;;;111649;1247;54333;-71
2023/07/10 09:49:03;;;;;;;;;20.00;18.00;29.40;50.00;;;;;;111196;1244;44551;-72
2023/07/10 09:51:30;;;;;;;;;23.00;20.50;29.40;50.40;;;;;;111091;1245;49037;-70
2023/07/10 09:54:04;;;;;;;;;20.33;18.33;29.40;50.00;;;;;;111379;1244;49009;-72
2023/07/10 09:56:35;;;;;;;;;19.00;17.00;29.40;50.10;;;;;;111203;1244;54636;-72
2023/07/10 09:59:21;;;;;;;;;19.25;18.00;29.40;49.90;;;;;;111392;1243;44579;-73
2023/07/10 10:01:53;;;;;;;;;18.67;18.33;29.30;50.10;;;;;;111417;1241;49011;-72
2023/07/10 10:04:29;;;;;;;;;24.00;22.00;29.40;49.90;;;;;;111369;1243;49449;-72
2023/07/10 10:07:05;;;;;;;;;18.00;18.00;29.40;49.80;;;;;;111097;1242;54000;-72
2023/07/10 10:09:33;;;;;;;;;19.75;17.25;29.40;49.90;;;;;;111102;1247;44784;-74
2023/07/10 10:12:08;;;;;;;;;20.33;18.00;29.40;50.10;;;;;;111211;1244;48949;-74
2023/07/10 10:14:51;;;;;;;;;21.75;18.25;29.50;50.40;;;;;;111365;1243;49637;-74
2023/07/10 10:17:24;;;;;;;;;19.33;18.33;29.50;49.90;;;;;;111089;1241;53913;-76
2023/07/10 10:19:56;;;;;;;;;18.00;17.33;29.50;49.80;;;;;;111109;1248;44302;-70
2023/07/10 10:22:30;;;;;;;;;22.25;19.50;29.60;50.40;;;;;;111081;1247;49525;-71
2023/07/10 10:24:57;;;;;;;;;21.50;19.50;29.60;50.20;;;;;;111218;1248;49826;-70
2023/07/10 10:27:28;;;;;;;;;20.67;18.33;29.50;49.80;;;;;;111051;1246;54049;-68
2023/07/10 10:30:11;;;;;;;;;16.75;15.75;29.50;49.70;;;;;;110958;1244;45887;-71
2023/07/10 10:32:57;;;;;;;;;16.00;15.67;29.50;49.80;;;;;;111047;1241;48801;-73
2023/07/10 10:36:02;;;;;;;;;17.25;16.25;29.50;50.40;;;;;;111259;1243;49767;-72
2023/07/10 10:38:48;;;;;;;;;18.50;17.25;29.50;50.00;;;;;;111049;1248;54012;-72
2023/07/10 10:41:18;;;;;;;;;21.00;19.50;29.50;49.80;;;;;;111083;1241;45755;-70
2023/07/10 10:44:03;;;;;;;;;20.33;19.00;29.40;50.00;;;;;;111360;1243;49140;-69
2023/07/10 10:46:48;;;;;;;;;19.00;18.67;29.40;50.10;;;;;;111070;1247;49068;-74
2023/07/10 10:49:34;;;;;;;;;18.00;18.00;29.40;50.30;;;;;;111090;1246;53241;-71
2023/07/10 10:52:15;;;;;;;;;22.00;20.00;29.50;50.10;;;;;;111049;1246;44904;-71
2023/07/10 10:54:45;;;;;;;;;17.00;16.75;29.50;50.20;;;;;;111358;1247;49932;-70
2023/07/10 10:57:12;;;;;;;;;20.00;18.00;29.50;50.30;;;;;;111094;1247;48850;-71
2023/07/10 11:00:13;;;;;;;;;17.25;16.50;29.50;50.20;;;;;;111111;1247;54016;-70
2023/07/10 11:02:45;;;;;;;;;19.50;17.75;29.50;50.00;;;;;;111079;1241;45176;-71
2023/07/10 11:05:21;;;;;;;;;21.25;20.00;29.50;49.90;;;;;;111348;1244;49863;-72
2023/07/10 11:07:52;;;;;;;;;21.25;19.25;29.50;50.00;;;;;;111100;1244;49388;-71
2023/07/10 11:10:29;;;;;;;;;18.75;17.50;29.50;50.00;;;;;;111095;1247;54610;-70
2023/07/10 11:12:56;;;;;;;;;19.00;18.00;29.50;50.00;;;;;;111068;1248;44937;-71
2023/07/10 11:15:26;;;;;;;;;19.50;18.75;29.60;49.90;;;;;;111345;1244;50066;-71
2023/07/10 11:17:54;;;;;;;;;18.33;18.00;29.60;50.10;;;;;;110988;1247;48997;-72
2023/07/10 11:20:23;;;;;;;;;18.00;16.00;29.60;49.90;;;;;;111084;1243;53185;-71
2023/07/10 11:22:51;;;;;;;;;20.67;19.00;29.50;49.80;;;;;;111029;1248;44732;-72
2023/07/10 11:25:30;;;;;;;;;19.25;18.25;29.50;49.80;;;;;;111361;1247;50274;-70
2023/07/10 11:28:21;;;;;;;;;19.00;16.00;29.50;49.80;;;;;;111113;1241;49260;-73
2023/07/10 11:31:11;;;;;;;;;18.00;18.00;29.60;49.80;;;;;;111051;1247;53135;-71
2023/07/10 11:33:41;;;;;;;;;18.00;17.00;29.60;49.90;;;;;;111369;1247;44435;-69
2023/07/10 11:36:12;;;;;;;;;17.00;16.67;29.70;49.90;;;;;;111173;1242;48821;-70
2023/07/10 11:39:27;;;;;;;;;18.33;18.00;29.70;49.90;;;;;;111184;1245;49123;-69
2023/07/10 11:41:54;;;;;;;;;19.00;17.00;29.70;49.70;;;;;;111360;1242;54194;-70
2023/07/10 11:44:28;;;;;;;;;21.33;18.33;29.80;49.50;;;;;;111625;1244;44376;-70
2023/07/10 11:47:02;;;;;;;;;18.67;16.67;29.80;49.70;;;;;;111321;1243;49388;-71
2023/07/10 11:49:35;;;;;;;;;16.67;15.00;29.80;49.80;;;;;;111327;1244;49562;-71
2023/07/10 11:52:11;;;;;;;;;19.25;18.00;29.80;49.60;;;;;;111311;1241;53698;-73
2023/07/10 11:54:39;;;;;;;;;17.50;16.75;29.80;49.50;;;;;;111734;1243;44969;-70
2023/07/10 11:57:06;;;;;;;;;19.50;19.00;29.90;49.40;;;;;;111524;1244;49037;-70
2023/07/10 11:59:46;;;;;;;;;21.00;19.00;29.90;49.40;;;;;;111346;1247;49146;-70
2023/07/10 12:02:44;;;;;;;;;20.00;19.00;30.00;49.60;;;;;;111309;1247;53460;-71
2023/07/10 12:05:31;;;;;;;;;17.25;16.00;30.00;49.60;;;;;;111603;1247;44717;-70
2023/07/10 12:08:07;;;;;;;;;18.00;17.00;30.10;49.30;;;;;;111379;1247;48741;-68
2023/07/10 12:10:47;;;;;;;;;19.50;19.00;30.10;49.40;;;;;;111337;1241;49478;-70
2023/07/10 12:13:20;;;;;;;;;20.00;18.33;30.10;49.40;;;;;;111542;1247;54847;-73
2023/07/10 12:15:50;;;;;;;;;22.00;21.75;30.10;49.10;;;;;;111377;1241;45004;-73
2023/07/10 12:18:39;;;;;;;;;18.75;18.25;30.10;49.30;;;;;;111235;1244;49165;-73
2023/07/10 12:21:35;;;;;;;;;17.00;15.00;30.10;48.90;;;;;;111098;1246;49655;-71
2023/07/10 12:24:03;;;;;;;;;17.25;17.00;30.10;49.10;;;;;;111418;1244;53482;-73
2023/07/10 12:26:31;;;;;;;;;18.75;17.50;30.10;49.00;;;;;;111360;1241;44270;-72
2023/07/10 12:28:58;;;;;;;;;17.50;17.25;30.10;49.30;;;;;;111352;1247;49721;-69
2023/07/10 12:31:25;;;;;;;;;18.00;17.50;30.00;49.00;;;;;;111259;1243;50648;-70
2023/07/10 12:33:52;;;;;;;;;20.00;19.25;30.00;49.20;;;;;;111548;1247;54551;-71
2023/07/10 12:36:33;;;;;;;;;20.50;19.50;30.00;49.20;;;;;;111217;1243;46160;-71